createdAt,value
2017-05-21T00:01:00.317Z,20.36
2017-05-21T00:02:01.735Z,20.25
2017-05-21T00:03:03.151Z,20.24
2017-05-21T00:04:04.568Z,20.29
2017-05-21T00:05:05.985Z,20.18
2017-05-21T00:06:07.403Z,20.22
2017-05-21T00:07:08.818Z,20.25
2017-05-21T00:08:10.235Z,20.18
2017-05-21T00:09:11.647Z,20.26
2017-05-21T00:10:13.065Z,20.21
2017-05-21T00:11:14.480Z,20.25
2017-05-21T00:12:16.781Z,20.21
2017-05-21T00:13:18.200Z,20.19
2017-05-21T00:14:19.617Z,20.25
2017-05-21T00:15:21.034Z,20.24
2017-05-21T00:16:22.450Z,20.18
2017-05-21T00:17:23.869Z,20.28
2017-05-21T00:18:25.288Z,20.24
2017-05-21T00:19:26.707Z,20.22
2017-05-21T00:20:28.126Z,20.24
2017-05-21T00:21:29.540Z,20.22
2017-05-21T00:22:30.956Z,20.22
2017-05-21T00:23:32.390Z,20.24
2017-05-21T00:24:33.808Z,20.24
2017-05-21T00:25:35.224Z,20.19
2017-05-21T00:26:36.642Z,20.21
2017-05-21T00:27:38.059Z,20.16
2017-05-21T00:28:39.472Z,20.14
2017-05-21T00:29:40.887Z,20.25
2017-05-21T00:30:42.303Z,20.21
2017-05-21T00:31:43.715Z,20.16
2017-05-21T00:32:45.134Z,20.21
2017-05-21T00:33:46.551Z,20.19
2017-05-21T00:34:47.970Z,20.14
2017-05-21T00:35:49.384Z,20.22
2017-05-21T00:36:50.799Z,20.19
2017-05-21T00:37:52.216Z,20.19
2017-05-21T00:38:53.631Z,20.19
2017-05-21T00:39:55.050Z,20.19
2017-05-21T00:40:56.470Z,20.10
2017-05-21T00:41:57.886Z,20.21
2017-05-21T00:42:59.300Z,20.11
2017-05-21T00:44:00.716Z,20.19
2017-05-21T00:45:02.130Z,20.16
2017-05-21T00:46:03.546Z,20.16
2017-05-21T00:47:04.965Z,20.16
2017-05-21T00:48:06.380Z,20.21
2017-05-21T00:49:07.798Z,20.14
2017-05-21T00:50:09.213Z,20.09
2017-05-21T00:51:10.628Z,20.16
2017-05-21T00:52:12.045Z,20.11
2017-05-21T00:53:13.461Z,20.11
2017-05-21T00:54:14.878Z,20.18
2017-05-21T00:55:16.297Z,20.09
2017-05-21T00:56:17.714Z,20.24
2017-05-21T00:57:19.134Z,20.11
2017-05-21T00:58:20.541Z,20.14
2017-05-21T00:59:21.957Z,20.19
2017-05-21T01:00:23.372Z,20.18
2017-05-21T01:01:24.790Z,20.10
2017-05-21T01:02:26.209Z,20.11
2017-05-21T01:03:27.625Z,20.14
2017-05-21T01:04:29.038Z,20.09
2017-05-21T01:05:30.453Z,20.13
2017-05-21T01:06:31.870Z,20.16
2017-05-21T01:07:33.284Z,20.16
2017-05-21T01:08:34.705Z,20.16
2017-05-21T01:09:36.123Z,20.18
2017-05-21T01:10:37.540Z,20.18
2017-05-21T01:11:38.953Z,20.11
2017-05-21T01:12:40.372Z,20.22
2017-05-21T01:13:41.784Z,20.19
2017-05-21T01:14:43.202Z,20.18
2017-05-21T01:15:44.615Z,20.18
2017-05-21T01:16:46.034Z,20.16
2017-05-21T01:17:47.452Z,20.14
2017-05-21T01:18:48.866Z,20.14
2017-05-21T01:19:50.281Z,20.19
2017-05-21T01:20:51.696Z,20.18
2017-05-21T01:21:53.112Z,20.13
2017-05-21T01:22:54.528Z,20.09
2017-05-21T01:23:55.945Z,20.16
2017-05-21T01:24:57.362Z,20.16
2017-05-21T01:25:58.777Z,20.09
2017-05-21T01:27:00.191Z,20.06
2017-05-21T01:28:01.608Z,20.14
2017-05-21T01:29:03.025Z,20.09
2017-05-21T01:30:04.441Z,20.07
2017-05-21T01:31:05.859Z,20.11
2017-05-21T01:32:07.333Z,20.04
2017-05-21T01:33:08.693Z,20.07
2017-05-21T01:34:10.106Z,20.06
2017-05-21T01:35:11.521Z,20.09
2017-05-21T01:36:12.937Z,20.03
2017-05-21T01:37:14.355Z,20.10
2017-05-21T01:38:15.771Z,20.09
2017-05-21T01:39:17.189Z,20.03
2017-05-21T01:40:18.603Z,20.09
2017-05-21T01:41:20.016Z,20.04
2017-05-21T01:42:21.434Z,20.03
2017-05-21T01:43:22.853Z,20.07
2017-05-21T01:44:24.267Z,20.09
2017-05-21T01:45:25.684Z,20.07
2017-05-21T01:46:27.101Z,20.07
2017-05-21T01:47:28.516Z,20.09
2017-05-21T01:48:29.931Z,20.04
2017-05-21T01:49:31.347Z,20.07
2017-05-21T01:50:32.764Z,20.07
2017-05-21T01:51:34.181Z,20.06
2017-05-21T01:52:35.599Z,20.11
2017-05-21T01:53:37.019Z,20.02
2017-05-21T01:54:38.432Z,20.07
2017-05-21T01:55:39.844Z,20.00
2017-05-21T01:56:41.261Z,20.07
2017-05-21T01:57:42.677Z,20.03
2017-05-21T01:58:44.095Z,20.04
2017-05-21T01:59:45.511Z,20.02
2017-05-21T02:00:46.930Z,19.99
2017-05-21T02:01:48.343Z,20.00
2017-05-21T02:02:49.757Z,20.03
2017-05-21T02:03:51.172Z,20.00
2017-05-21T02:04:52.590Z,20.03
2017-05-21T02:05:54.005Z,20.06
2017-05-21T02:06:55.424Z,20.02
2017-05-21T02:07:56.842Z,20.07
2017-05-21T02:08:58.257Z,20.04
2017-05-21T02:09:59.672Z,20.03
2017-05-21T02:11:01.087Z,20.06
2017-05-21T02:12:02.502Z,20.03
2017-05-21T02:13:03.929Z,20.00
2017-05-21T02:14:05.346Z,20.03
2017-05-21T02:15:06.764Z,20.06
2017-05-21T02:16:08.178Z,19.96
2017-05-21T02:17:09.593Z,20.07
2017-05-21T02:18:11.008Z,19.99
2017-05-21T02:19:12.424Z,20.03
2017-05-21T02:20:13.840Z,20.02
2017-05-21T02:21:15.256Z,20.03
2017-05-21T02:22:16.676Z,19.99
2017-05-21T02:23:18.091Z,20.06
2017-05-21T02:24:19.506Z,20.03
2017-05-21T02:25:20.921Z,19.96
2017-05-21T02:26:22.336Z,20.04
2017-05-21T02:27:23.753Z,20.04
2017-05-21T02:28:25.171Z,20.03
2017-05-21T02:29:26.587Z,20.03
2017-05-21T02:30:28.003Z,20.02
2017-05-21T02:31:29.419Z,20.00
2017-05-21T02:32:30.836Z,20.04
2017-05-21T02:33:32.253Z,20.03
2017-05-21T02:34:33.670Z,19.99
2017-05-21T02:35:35.106Z,20.00
2017-05-21T02:36:36.525Z,20.07
2017-05-21T02:37:37.939Z,20.00
2017-05-21T02:38:39.354Z,20.04
2017-05-21T02:39:40.767Z,20.02
2017-05-21T02:40:42.188Z,20.04
2017-05-21T02:41:43.604Z,20.06
2017-05-21T02:42:45.025Z,20.04
2017-05-21T02:43:46.452Z,19.99
2017-05-21T02:44:47.867Z,19.99
2017-05-21T02:45:49.281Z,19.94
2017-05-21T02:46:50.699Z,19.99
2017-05-21T02:47:52.115Z,19.96
2017-05-21T02:48:53.530Z,20.00
2017-05-21T02:49:54.948Z,19.94
2017-05-21T02:50:56.367Z,19.96
2017-05-21T02:51:57.780Z,19.95
2017-05-21T02:52:59.194Z,19.92
2017-05-21T02:54:00.608Z,20.00
2017-05-21T02:55:02.026Z,19.92
2017-05-21T02:56:03.441Z,19.95
2017-05-21T02:57:04.859Z,19.96
2017-05-21T02:58:06.278Z,19.96
2017-05-21T02:59:07.691Z,19.94
2017-05-21T03:00:09.106Z,19.85
2017-05-21T03:01:10.521Z,19.95
2017-05-21T03:02:11.937Z,19.95
2017-05-21T03:03:13.354Z,19.94
2017-05-21T03:04:14.771Z,19.92
2017-05-21T03:05:16.190Z,19.86
2017-05-21T03:06:17.606Z,19.95
2017-05-21T03:07:19.019Z,19.92
2017-05-21T03:08:20.439Z,19.92
2017-05-21T03:09:21.854Z,19.92
2017-05-21T03:10:23.268Z,19.92
2017-05-21T03:11:24.685Z,19.92
2017-05-21T03:12:26.103Z,19.92
2017-05-21T03:13:27.518Z,19.89
2017-05-21T03:14:28.932Z,19.96
2017-05-21T03:15:30.348Z,19.95
2017-05-21T03:16:31.764Z,19.94
2017-05-21T03:17:33.180Z,19.92
2017-05-21T03:18:34.599Z,19.95
2017-05-21T03:19:36.016Z,19.84
2017-05-21T03:20:37.431Z,19.86
2017-05-21T03:21:38.844Z,19.89
2017-05-21T03:22:40.260Z,19.84
2017-05-21T03:23:41.678Z,19.89
2017-05-21T03:24:43.097Z,19.92
2017-05-21T03:25:44.517Z,19.86
2017-05-21T03:26:45.935Z,19.92
2017-05-21T03:27:47.354Z,19.92
2017-05-21T03:28:48.772Z,19.92
2017-05-21T03:29:50.193Z,19.89
2017-05-21T03:30:51.611Z,19.92
2017-05-21T03:31:53.032Z,19.94
2017-05-21T03:32:54.450Z,19.91
2017-05-21T03:33:55.872Z,19.91
2017-05-21T03:34:57.307Z,19.85
2017-05-21T03:35:58.724Z,19.94
2017-05-21T03:37:00.142Z,19.94
2017-05-21T03:38:01.562Z,19.91
2017-05-21T03:39:02.981Z,19.92
2017-05-21T03:40:04.399Z,19.89
2017-05-21T03:41:05.817Z,19.94
2017-05-21T03:42:07.234Z,19.85
2017-05-21T03:43:08.649Z,19.91
2017-05-21T03:44:10.064Z,19.91
2017-05-21T03:45:11.480Z,19.91
2017-05-21T03:46:12.898Z,19.86
2017-05-21T03:47:14.320Z,19.95
2017-05-21T03:48:15.739Z,19.91
2017-05-21T03:49:17.156Z,19.92
2017-05-21T03:50:18.576Z,19.96
2017-05-21T03:51:19.988Z,19.89
2017-05-21T03:52:21.407Z,20.06
2017-05-21T03:53:22.829Z,19.94
2017-05-21T03:54:24.249Z,19.89
2017-05-21T03:55:25.668Z,19.95
2017-05-21T03:56:27.095Z,19.89
2017-05-21T03:57:28.511Z,19.92
2017-05-21T03:58:29.930Z,19.92
2017-05-21T03:59:31.352Z,19.95
2017-05-21T04:00:32.827Z,19.92
2017-05-21T04:01:34.248Z,19.95
2017-05-21T04:02:35.670Z,19.92
2017-05-21T04:03:37.096Z,19.99
2017-05-21T04:04:38.514Z,19.92
2017-05-21T04:05:39.933Z,19.91
2017-05-21T04:06:41.353Z,20.03
2017-05-21T04:07:42.774Z,19.99
2017-05-21T04:08:44.196Z,19.94
2017-05-21T04:09:45.615Z,19.92
2017-05-21T04:10:47.035Z,19.99
2017-05-21T04:11:48.450Z,19.95
2017-05-21T04:12:49.870Z,20.02
2017-05-21T04:13:51.294Z,19.96
2017-05-21T04:14:52.713Z,19.99
2017-05-21T04:15:54.135Z,19.99
2017-05-21T04:16:55.574Z,20.03
2017-05-21T04:17:56.973Z,19.96
2017-05-21T04:18:58.391Z,19.99
2017-05-21T04:19:59.811Z,20.03
2017-05-21T04:21:01.229Z,20.02
2017-05-21T04:22:02.648Z,19.99
2017-05-21T04:23:04.068Z,19.96
2017-05-21T04:24:05.489Z,20.07
2017-05-21T04:25:06.926Z,20.03
2017-05-21T04:26:08.347Z,20.03
2017-05-21T04:27:09.764Z,20.00
2017-05-21T04:28:11.185Z,20.06
2017-05-21T04:29:12.602Z,20.02
2017-05-21T04:30:14.024Z,20.04
2017-05-21T04:31:15.445Z,20.03
2017-05-21T04:32:16.864Z,20.06
2017-05-21T04:33:18.285Z,20.07
2017-05-21T04:34:19.710Z,20.06
2017-05-21T04:35:21.130Z,20.09
2017-05-21T04:36:22.553Z,20.04
2017-05-21T04:37:23.972Z,20.03
2017-05-21T04:38:25.393Z,20.02
2017-05-21T04:39:26.811Z,20.04
2017-05-21T04:40:28.241Z,20.07
2017-05-21T04:41:29.647Z,20.11
2017-05-21T04:42:31.072Z,20.04
2017-05-21T04:43:32.491Z,20.06
2017-05-21T04:44:33.914Z,20.09
2017-05-21T04:45:35.336Z,20.03
2017-05-21T04:46:36.755Z,20.11
2017-05-21T04:47:38.174Z,20.07
2017-05-21T04:48:39.594Z,20.14
2017-05-21T04:49:41.029Z,20.18
2017-05-21T04:50:42.451Z,20.11
2017-05-21T04:51:43.869Z,20.09
2017-05-21T04:52:45.292Z,20.18
2017-05-21T04:53:46.713Z,20.11
2017-05-21T04:54:48.134Z,20.18
2017-05-21T04:55:49.590Z,20.19
2017-05-21T04:56:50.999Z,20.19
2017-05-21T04:57:52.421Z,20.10
2017-05-21T04:58:53.842Z,20.14
2017-05-21T04:59:55.266Z,20.14
2017-05-21T05:00:56.681Z,20.11
2017-05-21T05:01:58.099Z,20.13
2017-05-21T05:02:59.523Z,20.18
2017-05-21T05:04:00.939Z,20.21
2017-05-21T05:05:02.368Z,20.18
2017-05-21T05:06:03.793Z,20.21
2017-05-21T05:07:05.213Z,20.13
2017-05-21T05:08:06.630Z,20.18
2017-05-21T05:09:08.048Z,20.26
2017-05-21T05:10:09.467Z,20.25
2017-05-21T05:11:10.887Z,20.24
2017-05-21T05:12:12.322Z,20.22
2017-05-21T05:13:13.743Z,20.24
2017-05-21T05:14:15.166Z,20.25
2017-05-21T05:15:16.582Z,20.31
2017-05-21T05:16:17.999Z,20.24
2017-05-21T05:17:19.432Z,20.28
2017-05-21T05:18:20.837Z,20.21
2017-05-21T05:19:22.258Z,20.25
2017-05-21T05:20:23.704Z,20.25
2017-05-21T05:21:25.113Z,20.29
2017-05-21T05:22:26.532Z,20.28
2017-05-21T05:23:27.951Z,20.34
2017-05-21T05:24:29.372Z,20.29
2017-05-21T05:25:30.795Z,20.26
2017-05-21T05:26:32.218Z,20.40
2017-05-21T05:27:33.639Z,20.28
2017-05-21T05:28:35.059Z,20.28
2017-05-21T05:29:36.476Z,20.41
2017-05-21T05:30:37.893Z,20.41
2017-05-21T05:31:39.311Z,20.43
2017-05-21T05:32:40.731Z,20.43
2017-05-21T05:33:42.154Z,20.44
2017-05-21T05:34:43.575Z,20.40
2017-05-21T05:35:44.998Z,20.43
2017-05-21T05:36:46.430Z,20.50
2017-05-21T05:37:47.847Z,20.43
2017-05-21T05:38:49.265Z,20.52
2017-05-21T05:39:50.694Z,20.51
2017-05-21T05:40:52.109Z,20.41
2017-05-21T05:41:53.533Z,20.50
2017-05-21T05:42:54.951Z,20.52
2017-05-21T05:43:56.371Z,20.50
2017-05-21T05:44:57.786Z,20.51
2017-05-21T05:45:59.251Z,20.51
2017-05-21T05:47:00.672Z,20.50
2017-05-21T05:48:02.093Z,20.52
2017-05-21T05:49:03.516Z,20.51
2017-05-21T05:50:04.948Z,20.50
2017-05-21T05:51:06.365Z,20.51
2017-05-21T05:52:07.784Z,20.58
2017-05-21T05:53:09.201Z,20.52
2017-05-21T05:54:10.620Z,20.62
2017-05-21T05:55:12.042Z,20.59
2017-05-21T05:56:13.461Z,20.59
2017-05-21T05:57:14.885Z,20.60
2017-05-21T05:58:16.302Z,20.62
2017-05-21T05:59:17.722Z,20.60
2017-05-21T06:00:19.167Z,20.58
2017-05-21T06:01:20.582Z,20.55
2017-05-21T06:02:22.031Z,20.59
2017-05-21T06:03:23.475Z,20.59
2017-05-21T06:04:24.907Z,20.58
2017-05-21T06:05:26.323Z,20.63
2017-05-21T06:06:27.739Z,20.62
2017-05-21T06:07:29.171Z,20.65
2017-05-21T06:08:30.590Z,20.62
2017-05-21T06:09:32.011Z,20.63
2017-05-21T06:10:33.465Z,20.58
2017-05-21T06:11:34.879Z,20.06
2017-05-21T06:12:38.342Z,19.54
2017-05-21T06:13:39.052Z,19.26
2017-05-21T06:14:40.474Z,19.19
2017-05-21T06:15:41.963Z,19.26
2017-05-21T06:16:45.181Z,19.11
2017-05-21T06:17:46.545Z,19.22
2017-05-21T06:18:50.073Z,19.21
2017-05-21T06:19:51.506Z,19.22
2017-05-21T06:20:55.207Z,19.16
2017-05-21T06:21:56.638Z,19.16
2017-05-21T06:22:58.065Z,19.18
2017-05-21T06:23:59.503Z,18.98
2017-05-21T06:25:00.925Z,19.02
2017-05-21T06:26:02.348Z,19.02
2017-05-21T06:27:03.763Z,18.99
2017-05-21T06:28:05.183Z,18.90
2017-05-21T06:29:06.602Z,18.77
2017-05-21T06:30:08.380Z,18.86
2017-05-21T06:31:10.208Z,18.74
2017-05-21T06:32:12.158Z,18.68
2017-05-21T06:33:13.855Z,18.74
2017-05-21T06:34:15.657Z,18.75
2017-05-21T06:35:17.462Z,18.75
2017-05-21T06:36:19.175Z,18.74
2017-05-21T06:37:21.041Z,18.62
2017-05-21T06:38:22.834Z,18.73
2017-05-21T06:39:25.164Z,18.60
2017-05-21T06:40:26.946Z,18.70
2017-05-21T06:41:28.756Z,18.74
2017-05-21T06:42:30.555Z,18.75
2017-05-21T06:43:32.378Z,18.74
2017-05-21T06:44:34.162Z,18.73
2017-05-21T06:45:35.954Z,18.77
2017-05-21T06:46:37.747Z,18.99
2017-05-21T06:47:40.482Z,19.12
2017-05-21T06:48:42.436Z,19.15
2017-05-21T06:49:46.261Z,19.27
2017-05-21T06:50:48.169Z,19.31
2017-05-21T06:51:55.059Z,19.33
2017-05-21T06:52:56.836Z,19.31
2017-05-21T06:53:58.649Z,19.45
2017-05-21T06:55:00.506Z,19.49
2017-05-21T06:56:02.284Z,19.44
2017-05-21T06:57:04.062Z,19.30
2017-05-21T06:58:06.057Z,19.44
2017-05-21T06:59:07.866Z,19.79
2017-05-21T07:00:09.656Z,19.77
2017-05-21T07:01:12.251Z,19.58
2017-05-21T07:02:14.074Z,19.82
2017-05-21T07:05:52.536Z,19.59
2017-05-21T07:06:54.198Z,19.56
2017-05-21T07:08:15.790Z,19.58
2017-05-21T07:09:17.212Z,19.59
2017-05-21T07:10:38.785Z,19.54
2017-05-21T07:11:40.202Z,19.45
2017-05-21T07:13:01.789Z,19.55
2017-05-21T07:14:03.226Z,19.62
2017-05-21T07:15:24.803Z,19.81
2017-05-21T07:16:26.221Z,19.82
2017-05-21T07:17:27.639Z,19.82
2017-05-21T07:18:29.071Z,19.69
2017-05-21T07:19:30.493Z,19.54
2017-05-21T07:20:31.915Z,19.37
2017-05-21T07:21:33.336Z,19.33
2017-05-21T07:22:34.761Z,19.31
2017-05-21T07:23:36.181Z,19.55
2017-05-21T07:24:37.600Z,19.58
2017-05-21T07:25:39.027Z,19.59
2017-05-21T07:26:40.447Z,19.63
2017-05-21T07:27:41.872Z,19.51
2017-05-21T07:28:43.300Z,19.41
2017-05-21T07:29:44.720Z,19.64
2017-05-21T07:30:46.141Z,19.39
2017-05-21T07:31:47.696Z,19.36
2017-05-21T07:32:49.123Z,19.34
2017-05-21T07:33:50.544Z,19.34
2017-05-21T07:34:51.964Z,19.31
2017-05-21T07:35:53.836Z,19.31
2017-05-21T07:36:55.262Z,19.27
2017-05-21T07:37:56.681Z,19.47
2017-05-21T07:38:58.112Z,19.54
2017-05-21T07:39:59.533Z,19.74
2017-05-21T07:41:00.978Z,19.76
2017-05-21T07:42:03.281Z,19.92
2017-05-21T07:43:04.709Z,19.95
2017-05-21T07:44:08.567Z,19.91
2017-05-21T07:45:09.913Z,19.96
2017-05-21T07:46:11.335Z,19.85
2017-05-21T07:47:12.756Z,19.89
2017-05-21T07:48:14.214Z,19.91
2017-05-21T07:49:15.633Z,19.77
2017-05-21T07:50:17.055Z,19.82
2017-05-21T07:51:18.480Z,19.95
2017-05-21T07:52:19.935Z,20.07
2017-05-21T07:53:21.358Z,20.18
2017-05-21T07:54:24.186Z,20.18
2017-05-21T07:55:26.372Z,20.16
2017-05-21T07:56:29.993Z,20.29
2017-05-21T07:57:36.210Z,20.24
2017-05-21T07:58:39.853Z,20.29
2017-05-21T07:59:41.275Z,20.32
2017-05-21T08:00:44.619Z,20.25
2017-05-21T08:01:48.891Z,20.26
2017-05-21T08:02:52.854Z,20.37
2017-05-21T08:03:56.116Z,20.34
2017-05-21T08:04:57.554Z,20.32
2017-05-21T08:05:58.975Z,20.56
2017-05-21T08:07:00.400Z,20.58
2017-05-21T08:08:01.822Z,20.60
2017-05-21T08:09:03.268Z,20.41
2017-05-21T08:10:04.685Z,20.32
2017-05-21T08:11:06.109Z,20.24
2017-05-21T08:12:07.538Z,20.26
2017-05-21T08:13:08.961Z,20.19
2017-05-21T08:14:10.395Z,20.19
2017-05-21T08:15:11.812Z,20.19
2017-05-21T08:16:13.234Z,20.26
2017-05-21T08:17:14.652Z,20.14
2017-05-21T08:18:16.076Z,20.16
2017-05-21T08:19:17.503Z,20.18
2017-05-21T08:20:18.927Z,20.19
2017-05-21T08:21:20.349Z,20.18
2017-05-21T08:22:21.766Z,20.14
2017-05-21T08:23:23.187Z,20.22
2017-05-21T08:24:24.610Z,20.26
2017-05-21T08:25:26.029Z,20.29
2017-05-21T08:26:27.460Z,20.31
2017-05-21T08:27:28.884Z,20.41
2017-05-21T08:28:30.302Z,20.37
2017-05-21T08:29:31.723Z,20.41
2017-05-21T08:30:33.153Z,20.41
2017-05-21T08:31:34.574Z,20.44
2017-05-21T08:32:35.998Z,20.40
2017-05-21T08:33:37.418Z,20.47
2017-05-21T08:34:38.848Z,20.51
2017-05-21T08:35:40.263Z,20.48
2017-05-21T08:36:41.678Z,20.51
2017-05-21T08:37:43.101Z,20.47
2017-05-21T08:38:44.521Z,20.56
2017-05-21T08:39:45.945Z,20.56
2017-05-21T08:40:47.368Z,20.47
2017-05-21T08:41:48.788Z,20.44
2017-05-21T08:42:50.212Z,20.43
2017-05-21T08:43:51.630Z,20.50
2017-05-21T08:44:53.050Z,20.47
2017-05-21T08:45:54.478Z,20.48
2017-05-21T08:46:55.901Z,20.44
2017-05-21T08:47:57.347Z,20.52
2017-05-21T08:48:58.770Z,20.55
2017-05-21T08:50:00.195Z,20.51
2017-05-21T08:51:01.616Z,20.47
2017-05-21T08:52:03.035Z,20.47
2017-05-21T08:53:04.457Z,20.48
2017-05-21T08:54:05.881Z,20.44
2017-05-21T08:55:07.305Z,20.51
2017-05-21T08:56:08.722Z,20.50
2017-05-21T08:57:10.149Z,20.62
2017-05-21T08:58:11.574Z,20.66
2017-05-21T08:59:12.990Z,20.75
2017-05-21T09:00:14.590Z,20.78
2017-05-21T09:01:16.030Z,20.67
2017-05-21T09:02:17.442Z,20.78
2017-05-21T09:03:21.848Z,20.69
2017-05-21T09:04:23.729Z,20.66
2017-05-21T09:05:25.195Z,20.67
2017-05-21T09:06:26.619Z,20.75
2017-05-21T09:07:28.040Z,20.81
2017-05-21T09:08:29.463Z,20.96
2017-05-21T09:09:30.885Z,21.02
2017-05-21T09:10:32.310Z,21.11
2017-05-21T09:11:33.784Z,21.25
2017-05-21T09:12:35.158Z,21.24
2017-05-21T09:13:36.579Z,21.27
2017-05-21T09:14:38.001Z,21.06
2017-05-21T09:15:39.421Z,20.99
2017-05-21T09:16:40.845Z,20.97
2017-05-21T09:17:43.176Z,20.96
2017-05-21T09:18:47.392Z,21.00
2017-05-21T09:19:50.939Z,21.05
2017-05-21T09:20:54.395Z,21.02
2017-05-21T09:21:57.056Z,21.03
2017-05-21T09:22:58.669Z,20.95
2017-05-21T09:24:00.087Z,20.92
2017-05-21T09:25:01.509Z,20.87
2017-05-21T09:26:05.486Z,20.99
2017-05-21T09:27:09.381Z,21.02
2017-05-21T09:28:12.255Z,21.02
2017-05-21T09:29:14.879Z,21.02
2017-05-21T09:30:16.423Z,21.05
2017-05-21T09:31:17.789Z,21.17
2017-05-21T09:32:19.220Z,21.24
2017-05-21T09:33:23.311Z,21.06
2017-05-21T09:34:25.511Z,21.02
2017-05-21T09:35:26.938Z,20.95
2017-05-21T09:36:28.362Z,21.02
2017-05-21T09:37:29.784Z,20.95
2017-05-21T09:38:31.207Z,21.03
2017-05-21T09:39:32.629Z,21.05
2017-05-21T09:40:34.049Z,21.03
2017-05-21T09:41:35.471Z,20.97
2017-05-21T09:42:36.894Z,21.05
2017-05-21T09:43:38.392Z,21.02
2017-05-21T09:44:39.817Z,21.12
2017-05-21T09:45:41.241Z,21.27
2017-05-21T09:46:42.667Z,21.30
2017-05-21T09:47:45.134Z,21.39
2017-05-21T09:48:46.562Z,21.39
2017-05-21T09:49:49.647Z,21.51
2017-05-21T09:50:51.546Z,21.36
2017-05-21T09:51:53.536Z,21.24
2017-05-21T09:52:56.530Z,21.22
2017-05-21T09:53:58.387Z,21.18
2017-05-21T09:55:01.210Z,21.25
2017-05-21T09:56:02.991Z,21.39
2017-05-21T09:57:05.739Z,21.29
2017-05-21T09:58:07.531Z,21.37
2017-05-21T09:59:17.411Z,21.35
2017-05-21T10:00:25.469Z,21.43
2017-05-21T10:01:32.609Z,21.39
2017-05-21T10:02:37.395Z,21.50
2017-05-21T10:03:38.655Z,21.52
2017-05-21T10:04:44.021Z,21.54
2017-05-21T10:05:50.176Z,21.62
2017-05-21T10:06:51.931Z,21.67
2017-05-21T10:07:54.493Z,21.52
2017-05-21T10:08:56.610Z,21.58
2017-05-21T10:09:58.330Z,21.69
2017-05-21T10:11:00.127Z,21.58
2017-05-21T10:12:04.356Z,21.62
2017-05-21T10:13:06.622Z,21.76
2017-05-21T10:14:10.490Z,21.75
2017-05-21T10:15:17.130Z,21.72
2017-05-21T10:16:19.411Z,21.75
2017-05-21T10:17:26.009Z,21.72
2017-05-21T10:18:30.059Z,21.70
2017-05-21T10:19:34.106Z,21.61
2017-05-21T10:20:38.036Z,21.62
2017-05-21T10:21:43.544Z,21.62
2017-05-21T10:22:48.335Z,21.51
2017-05-21T10:23:53.018Z,21.50
2017-05-21T10:24:56.051Z,21.43
2017-05-21T10:26:04.230Z,21.36
2017-05-21T10:27:05.877Z,21.25
2017-05-21T10:28:08.520Z,21.32
2017-05-21T10:29:10.162Z,21.35
2017-05-21T10:30:13.790Z,21.33
2017-05-21T10:31:18.104Z,21.43
2017-05-21T10:32:24.295Z,21.54
2017-05-21T10:33:29.205Z,21.50
2017-05-21T10:34:30.834Z,21.52
2017-05-21T10:35:37.643Z,21.62
2017-05-21T10:36:39.006Z,21.73
2017-05-21T10:37:43.176Z,21.69
2017-05-21T10:38:44.989Z,21.62
2017-05-21T10:39:46.794Z,21.76
2017-05-21T10:40:49.276Z,21.72
2017-05-21T10:41:51.042Z,21.70
2017-05-21T10:42:52.783Z,21.76
2017-05-21T10:43:54.584Z,21.75
2017-05-21T10:44:56.391Z,21.92
2017-05-21T10:45:59.525Z,21.92
2017-05-21T10:47:00.677Z,21.95
2017-05-21T10:48:02.473Z,21.99
2017-05-21T10:49:03.873Z,21.99
2017-05-21T10:50:06.798Z,22.02
2017-05-21T10:51:08.221Z,21.98
2017-05-21T10:52:09.645Z,22.06
2017-05-21T10:53:15.107Z,21.95
2017-05-21T10:54:17.420Z,22.08
2017-05-21T10:55:18.841Z,21.96
2017-05-21T10:56:20.264Z,22.14
2017-05-21T10:57:21.687Z,22.08
2017-05-21T10:58:23.118Z,22.04
2017-05-21T10:59:24.542Z,22.15
2017-05-21T11:00:25.980Z,22.20
2017-05-21T11:01:27.398Z,22.20
2017-05-21T11:02:28.818Z,22.22
2017-05-21T11:03:30.243Z,22.10
2017-05-21T11:04:31.669Z,22.15
2017-05-21T11:05:33.094Z,22.13
2017-05-21T11:06:34.519Z,22.13
2017-05-21T11:07:35.944Z,22.15
2017-05-21T11:08:37.364Z,22.11
2017-05-21T11:09:38.782Z,22.15
2017-05-21T11:10:40.207Z,22.08
2017-05-21T11:11:41.640Z,22.15
2017-05-21T11:12:43.062Z,22.10
2017-05-21T11:13:44.486Z,22.18
2017-05-21T11:14:45.909Z,22.17
2017-05-21T11:15:47.328Z,22.08
2017-05-21T11:16:48.750Z,22.20
2017-05-21T11:17:50.172Z,22.08
2017-05-21T11:18:51.595Z,22.06
2017-05-21T11:19:53.019Z,22.07
2017-05-21T11:20:54.442Z,22.02
2017-05-21T11:21:55.874Z,22.20
2017-05-21T11:22:57.296Z,22.04
2017-05-21T11:23:58.717Z,22.10
2017-05-21T11:25:00.137Z,21.99
2017-05-21T11:26:01.558Z,22.00
2017-05-21T11:27:02.984Z,21.93
2017-05-21T11:28:04.406Z,21.99
2017-05-21T11:29:05.831Z,21.99
2017-05-21T11:30:07.272Z,21.99
2017-05-21T11:31:08.694Z,21.91
2017-05-21T11:32:10.113Z,21.93
2017-05-21T11:33:11.534Z,21.99
2017-05-21T11:34:12.958Z,21.99
2017-05-21T11:35:14.381Z,21.95
2017-05-21T11:36:15.806Z,21.96
2017-05-21T11:37:17.226Z,22.00
2017-05-21T11:38:18.648Z,22.04
2017-05-21T11:39:20.068Z,22.04
2017-05-21T11:40:21.490Z,22.13
2017-05-21T11:41:22.914Z,22.13
2017-05-21T11:42:24.337Z,22.11
2017-05-21T11:43:25.760Z,22.06
2017-05-21T11:44:27.182Z,22.17
2017-05-21T11:45:28.601Z,22.10
2017-05-21T11:46:30.029Z,22.22
2017-05-21T11:47:31.450Z,22.17
2017-05-21T11:48:32.874Z,22.11
2017-05-21T11:49:34.295Z,22.11
2017-05-21T11:50:35.720Z,22.11
2017-05-21T11:51:37.139Z,22.08
2017-05-21T11:52:38.563Z,22.14
2017-05-21T11:53:39.990Z,22.10
2017-05-21T11:54:41.408Z,22.10
2017-05-21T11:55:42.829Z,22.08
2017-05-21T11:56:44.256Z,22.10
2017-05-21T11:57:45.684Z,22.20
2017-05-21T11:58:47.106Z,22.11
2017-05-21T11:59:48.532Z,22.11
2017-05-21T12:00:49.953Z,22.10
2017-05-21T12:01:51.390Z,22.14
2017-05-21T12:02:52.813Z,22.10
2017-05-21T12:03:54.238Z,22.15
2017-05-21T12:04:55.663Z,22.15
2017-05-21T12:05:57.080Z,22.11
2017-05-21T12:06:58.501Z,22.14
2017-05-21T12:07:59.925Z,22.10
2017-05-21T12:09:01.396Z,22.17
2017-05-21T12:10:02.766Z,22.14
2017-05-21T12:11:04.190Z,22.13
2017-05-21T12:12:05.614Z,22.15
2017-05-21T12:13:07.036Z,22.08
2017-05-21T12:14:08.518Z,22.10
2017-05-21T12:15:09.881Z,22.18
2017-05-21T12:16:11.300Z,22.18
2017-05-21T12:17:12.723Z,22.23
2017-05-21T12:18:14.148Z,22.22
2017-05-21T12:19:15.576Z,22.11
2017-05-21T12:20:16.997Z,22.23
2017-05-21T12:21:18.417Z,22.20
2017-05-21T12:22:19.838Z,22.14
2017-05-21T12:23:21.262Z,22.17
2017-05-21T12:24:22.686Z,22.15
2017-05-21T12:25:24.111Z,22.15
2017-05-21T12:26:25.534Z,22.10
2017-05-21T12:27:26.954Z,22.14
2017-05-21T12:28:28.375Z,22.18
2017-05-21T12:29:29.797Z,22.15
2017-05-21T12:30:31.230Z,22.20
2017-05-21T12:31:32.655Z,22.22
2017-05-21T12:32:34.077Z,22.20
2017-05-21T12:33:35.502Z,22.18
2017-05-21T12:34:36.921Z,22.26
2017-05-21T12:35:38.343Z,22.17
2017-05-21T12:36:39.763Z,22.26
2017-05-21T12:37:41.185Z,22.20
2017-05-21T12:38:42.609Z,22.29
2017-05-21T12:39:44.033Z,22.13
2017-05-21T12:40:45.455Z,22.13
2017-05-21T12:41:46.879Z,22.10
2017-05-21T12:42:48.301Z,22.15
2017-05-21T12:43:49.722Z,22.17
2017-05-21T12:44:51.143Z,22.22
2017-05-21T12:45:52.567Z,22.20
2017-05-21T12:46:53.991Z,22.23
2017-05-21T12:47:55.418Z,22.23
2017-05-21T12:48:56.839Z,22.15
2017-05-21T12:49:58.267Z,22.08
2017-05-21T12:50:59.695Z,22.13
2017-05-21T12:52:01.119Z,22.11
2017-05-21T12:53:02.542Z,22.02
2017-05-21T12:54:03.965Z,22.13
2017-05-21T12:55:05.387Z,22.15
2017-05-21T12:56:06.808Z,22.13
2017-05-21T12:57:08.228Z,22.15
2017-05-21T12:58:09.649Z,22.14
2017-05-21T12:59:11.074Z,22.11
2017-05-21T13:00:12.496Z,22.11
2017-05-21T13:01:13.921Z,22.17
2017-05-21T13:02:15.345Z,22.22
2017-05-21T13:03:16.766Z,22.15
2017-05-21T13:04:18.186Z,22.17
2017-05-21T13:05:19.607Z,22.25
2017-05-21T13:06:21.034Z,22.23
2017-05-21T13:07:22.458Z,22.26
2017-05-21T13:08:23.882Z,22.17
2017-05-21T13:09:25.307Z,22.23
2017-05-21T13:10:26.728Z,22.25
2017-05-21T13:11:28.146Z,22.28
2017-05-21T13:12:29.567Z,22.26
2017-05-21T13:13:30.994Z,22.22
2017-05-21T13:14:32.413Z,22.26
2017-05-21T13:15:33.839Z,22.26
2017-05-21T13:16:35.263Z,22.26
2017-05-21T13:17:36.683Z,22.32
2017-05-21T13:18:40.678Z,22.43